Bookmark and Share
Track history (hours):
 

St Pierre

Last reported at 2014-Apr-18 04:31 UTC. Time now 2014-Apr-19 14:41 UTC.
Position N 47°12' W 001°38'.

Length 84 m; draft 6.2 m.

Type: Cargo ship. MMSI: 228024800.

NotesDate/timePositionNaut miles runAvg speedWind from/ knotsBaromVisibWave heightAir tempDewpointWater temp
2014-Apr-18 04:31N 47°12' W 001°38'0 0.0
2014-Apr-18 03:33N 47°12' W 001°38'0 0.0
2014-Apr-18 02:31N 47°12' W 001°38'30 1.8
2014-Apr-17 09:26N 47°06' W 002°21'0 0.4
2014-Apr-17 08:33N 47°06' W 002°21'8 7.7
2014-Apr-17 07:31N 47°13' W 002°16'2 0.5
2014-Apr-17 04:26N 47°14' W 002°15'9 9.8
2014-Apr-17 03:32N 47°07' W 002°21'0 0.1
2014-Apr-17 02:11N 47°07' W 002°21'0 0.0
2014-Apr-17 01:30N 47°07' W 002°21'  
2014-Apr-13 21:32N 47°05' W 002°21'22 5.0
2014-Apr-13 17:08N 47°16' W 001°53'  
2014-Apr-10 08:11N 47°05' W 002°21'0 0.1
2014-Apr-10 07:26N 47°05' W 002°21'1 0.6
2014-Apr-10 06:34N 47°06' W 002°21'1310.7
2014-Apr-10 05:21N 47°17' W 002°11'1411.7
2014-Apr-10 04:10N 47°14' W 001°50'23 1.1
2014-Apr-09 08:06N 47°06' W 002°21'0 0.6
2014-Apr-09 07:33N 47°06' W 002°21'6 2.5
2014-Apr-09 05:04N 47°12' W 002°18'  

Dump ship's entire track history

sailing weather and tide predictions

St Pierre — FIDX — position and weather